sensor_id;sensor_type;location;lat;lon;timestamp;pressure;altitude;pressure_sealevel;temperature;humidity
16821;BME280;8527;49.740;6.604;2024-03-02T00:00:52;98313.94;;;9.39;64.08
16821;BME280;8527;49.740;6.604;2024-03-02T00:05:51;98310.44;;;9.32;63.94
16821;BME280;8527;49.740;6.604;2024-03-02T00:10:57;98313.41;;;9.15;64.40
16821;BME280;8527;49.740;6.604;2024-03-02T00:15:59;98315.25;;;9.22;64.30
16821;BME280;8527;49.740;6.604;2024-03-02T00:21:00;98316.84;;;9.16;64.14
16821;BME280;8527;49.740;6.604;2024-03-02T00:26:03;98315.66;;;9.19;63.72
16821;BME280;8527;49.740;6.604;2024-03-02T00:31:06;98312.34;;;9.10;63.99
16821;BME280;8527;49.740;6.604;2024-03-02T00:36:14;98318.22;;;9.05;64.32
16821;BME280;8527;49.740;6.604;2024-03-02T00:41:23;98313.88;;;8.91;64.34
16821;BME280;8527;49.740;6.604;2024-03-02T00:46:28;98315.91;;;8.89;64.58
16821;BME280;8527;49.740;6.604;2024-03-02T00:51:35;98318.16;;;8.92;64.64
16821;BME280;8527;49.740;6.604;2024-03-02T00:56:43;98317.75;;;8.95;64.49
16821;BME280;8527;49.740;6.604;2024-03-02T01:01:48;98312.72;;;9.00;64.62
16821;BME280;8527;49.740;6.604;2024-03-02T01:06:47;98315.69;;;8.90;64.88
16821;BME280;8527;49.740;6.604;2024-03-02T01:11:54;98309.41;;;8.91;65.09
16821;BME280;8527;49.740;6.604;2024-03-02T01:16:53;98311.88;;;8.99;64.45
16821;BME280;8527;49.740;6.604;2024-03-02T01:21:52;98297.25;;;9.04;64.23
16821;BME280;8527;49.740;6.604;2024-03-02T01:26:50;98306.06;;;9.11;64.36
16821;BME280;8527;49.740;6.604;2024-03-02T01:31:54;98312.75;;;9.07;64.56
16821;BME280;8527;49.740;6.604;2024-03-02T01:36:53;98299.34;;;9.15;63.79
16821;BME280;8527;49.740;6.604;2024-03-02T01:41:51;98301.59;;;9.11;65.04
16821;BME280;8527;49.740;6.604;2024-03-02T01:46:50;98300.53;;;9.06;65.11
16821;BME280;8527;49.740;6.604;2024-03-02T01:51:52;98300.72;;;9.04;65.30
16821;BME280;8527;49.740;6.604;2024-03-02T01:56:53;98303.97;;;9.06;64.74
16821;BME280;8527;49.740;6.604;2024-03-02T02:01:52;98310.94;;;9.14;64.99
16821;BME280;8527;49.740;6.604;2024-03-02T02:06:53;98309.50;;;9.05;64.56
16821;BME280;8527;49.740;6.604;2024-03-02T02:11:53;98306.84;;;9.05;65.15
16821;BME280;8527;49.740;6.604;2024-03-02T02:16:55;98310.72;;;9.09;64.29
16821;BME280;8527;49.740;6.604;2024-03-02T02:22:02;98306.44;;;9.08;64.50
16821;BME280;8527;49.740;6.604;2024-03-02T02:27:05;98307.28;;;9.15;64.74
16821;BME280;8527;49.740;6.604;2024-03-02T02:32:03;98310.91;;;9.07;65.39
16821;BME280;8527;49.740;6.604;2024-03-02T02:37:05;98307.81;;;9.04;65.17
16821;BME280;8527;49.740;6.604;2024-03-02T02:42:04;98309.31;;;9.13;65.29
16821;BME280;8527;49.740;6.604;2024-03-02T02:47:02;98298.28;;;9.09;65.75
16821;BME280;8527;49.740;6.604;2024-03-02T02:52:01;98294.59;;;9.04;65.80
16821;BME280;8527;49.740;6.604;2024-03-02T02:57:02;98298.50;;;9.08;66.26
16821;BME280;8527;49.740;6.604;2024-03-02T03:02:00;98295.00;;;9.00;66.76
16821;BME280;8527;49.740;6.604;2024-03-02T03:06:59;98296.63;;;9.01;66.59
16821;BME280;8527;49.740;6.604;2024-03-02T03:11:57;98297.91;;;9.06;66.55
16821;BME280;8527;49.740;6.604;2024-03-02T03:16:59;98304.56;;;9.01;66.63
16821;BME280;8527;49.740;6.604;2024-03-02T03:22:00;98300.88;;;8.96;66.77
16821;BME280;8527;49.740;6.604;2024-03-02T03:26:59;98295.97;;;8.93;66.91
16821;BME280;8527;49.740;6.604;2024-03-02T03:32:00;98304.88;;;8.85;67.51
16821;BME280;8527;49.740;6.604;2024-03-02T03:36:58;98301.63;;;8.83;68.06
16821;BME280;8527;49.740;6.604;2024-03-02T03:41:57;98314.69;;;8.91;68.53
16821;BME280;8527;49.740;6.604;2024-03-02T03:46:55;98309.56;;;8.83;68.74
16821;BME280;8527;49.740;6.604;2024-03-02T03:52:00;98315.19;;;8.73;69.50
16821;BME280;8527;49.740;6.604;2024-03-02T03:56:59;98314.00;;;8.82;70.04
16821;BME280;8527;49.740;6.604;2024-03-02T04:01:57;98324.19;;;8.79;69.92
16821;BME280;8527;49.740;6.604;2024-03-02T04:06:56;98336.75;;;8.77;70.01
16821;BME280;8527;49.740;6.604;2024-03-02T04:11:57;98338.09;;;8.66;69.92
16821;BME280;8527;49.740;6.604;2024-03-02T04:16:56;98335.63;;;8.64;70.32
16821;BME280;8527;49.740;6.604;2024-03-02T04:21:54;98326.50;;;8.67;70.19
16821;BME280;8527;49.740;6.604;2024-03-02T04:26:52;98347.72;;;8.52;73.00
16821;BME280;8527;49.740;6.604;2024-03-02T04:31:54;98345.84;;;8.45;75.05
16821;BME280;8527;49.740;6.604;2024-03-02T04:36:52;98347.16;;;8.56;74.84
16821;BME280;8527;49.740;6.604;2024-03-02T04:42:01;98351.66;;;8.56;76.25
16821;BME280;8527;49.740;6.604;2024-03-02T04:47:03;98355.31;;;8.55;76.33
16821;BME280;8527;49.740;6.604;2024-03-02T04:52:04;98355.56;;;8.45;76.38
16821;BME280;8527;49.740;6.604;2024-03-02T04:57:06;98356.41;;;8.45;76.16
16821;BME280;8527;49.740;6.604;2024-03-02T05:02:11;98363.59;;;8.52;75.52
16821;BME280;8527;49.740;6.604;2024-03-02T05:07:14;98364.34;;;8.45;76.20
16821;BME280;8527;49.740;6.604;2024-03-02T05:12:15;98370.34;;;8.39;77.23
16821;BME280;8527;49.740;6.604;2024-03-02T05:17:45;98361.19;;;8.35;77.20
16821;BME280;8527;49.740;6.604;2024-03-02T05:22:44;98366.47;;;8.35;77.60
16821;BME280;8527;49.740;6.604;2024-03-02T05:27:44;98375.16;;;8.29;77.64
16821;BME280;8527;49.740;6.604;2024-03-02T05:32:49;98377.66;;;8.37;78.33
16821;BME280;8527;49.740;6.604;2024-03-02T05:37:49;98373.53;;;8.28;79.27
16821;BME280;8527;49.740;6.604;2024-03-02T05:42:47;98366.50;;;8.20;80.21
16821;BME280;8527;49.740;6.604;2024-03-02T05:47:50;98368.31;;;8.35;79.84
16821;BME280;8527;49.740;6.604;2024-03-02T05:52:49;98371.44;;;8.23;81.30
16821;BME280;8527;49.740;6.604;2024-03-02T05:57:47;98375.34;;;8.27;82.79
16821;BME280;8527;49.740;6.604;2024-03-02T06:03:00;98366.72;;;8.19;84.00
16821;BME280;8527;49.740;6.604;2024-03-02T06:07:59;98361.16;;;8.13;84.91
16821;BME280;8527;49.740;6.604;2024-03-02T06:13:03;98362.50;;;8.24;84.94
16821;BME280;8527;49.740;6.604;2024-03-02T06:18:07;98369.16;;;8.20;85.69
16821;BME280;8527;49.740;6.604;2024-03-02T06:23:09;98371.25;;;8.25;84.54
16821;BME280;8527;49.740;6.604;2024-03-02T06:28:07;98368.91;;;8.15;84.64
16821;BME280;8527;49.740;6.604;2024-03-02T06:33:09;98371.16;;;8.18;85.48
16821;BME280;8527;49.740;6.604;2024-03-02T06:38:07;98382.38;;;8.20;85.02
16821;BME280;8527;49.740;6.604;2024-03-02T06:43:05;98381.63;;;8.26;85.34
16821;BME280;8527;49.740;6.604;2024-03-02T06:48:13;98382.69;;;8.32;85.63
16821;BME280;8527;49.740;6.604;2024-03-02T06:53:15;98377.22;;;8.34;85.76
16821;BME280;8527;49.740;6.604;2024-03-02T06:58:15;98384.44;;;8.25;85.35
16821;BME280;8527;49.740;6.604;2024-03-02T07:03:16;98393.72;;;8.36;85.29
16821;BME280;8527;49.740;6.604;2024-03-02T07:08:17;98395.72;;;8.34;85.64
16821;BME280;8527;49.740;6.604;2024-03-02T07:13:16;98392.44;;;8.31;84.74
16821;BME280;8527;49.740;6.604;2024-03-02T07:18:18;98410.44;;;8.43;84.30
16821;BME280;8527;49.740;6.604;2024-03-02T07:23:17;98406.63;;;8.45;83.56
16821;BME280;8527;49.740;6.604;2024-03-02T07:28:16;98412.47;;;8.41;84.67
16821;BME280;8527;49.740;6.604;2024-03-02T07:33:14;98409.66;;;8.42;84.26
16821;BME280;8527;49.740;6.604;2024-03-02T07:38:19;98413.25;;;8.56;83.04
16821;BME280;8527;49.740;6.604;2024-03-02T07:43:19;98405.25;;;8.71;82.47
16821;BME280;8527;49.740;6.604;2024-03-02T07:48:17;98410.78;;;8.77;81.96
16821;BME280;8527;49.740;6.604;2024-03-02T07:53:21;98417.25;;;8.96;80.38
16821;BME280;8527;49.740;6.604;2024-03-02T07:58:20;98422.91;;;9.14;79.06
16821;BME280;8527;49.740;6.604;2024-03-02T08:03:18;98439.09;;;9.33;78.47
16821;BME280;8527;49.740;6.604;2024-03-02T08:08:22;98438.44;;;9.53;76.89
16821;BME280;8527;49.740;6.604;2024-03-02T08:13:23;98436.22;;;9.56;75.60
16821;BME280;8527;49.740;6.604;2024-03-02T08:18:22;98435.97;;;9.51;75.66
16821;BME280;8527;49.740;6.604;2024-03-02T08:23:26;98428.31;;;9.63;75.46
16821;BME280;8527;49.740;6.604;2024-03-02T08:28:28;98417.00;;;9.90;74.65
16821;BME280;8527;49.740;6.604;2024-03-02T08:33:27;98426.59;;;10.46;72.69
16821;BME280;8527;49.740;6.604;2024-03-02T08:38:28;98421.53;;;10.72;72.02
16821;BME280;8527;49.740;6.604;2024-03-02T08:43:30;98423.19;;;11.00;72.04
16821;BME280;8527;49.740;6.604;2024-03-02T08:48:29;98415.44;;;11.25;70.84
16821;BME280;8527;49.740;6.604;2024-03-02T08:53:31;98437.25;;;11.47;69.17
16821;BME280;8527;49.740;6.604;2024-03-02T08:58:31;98421.84;;;11.76;69.61
16821;BME280;8527;49.740;6.604;2024-03-02T09:03:30;98441.31;;;11.57;67.82
16821;BME280;8527;49.740;6.604;2024-03-02T09:08:38;98448.25;;;11.37;66.97
16821;BME280;8527;49.740;6.604;2024-03-02T09:13:37;98434.81;;;11.25;67.30
16821;BME280;8527;49.740;6.604;2024-03-02T09:18:36;98443.41;;;11.07;68.20
16821;BME280;8527;49.740;6.604;2024-03-02T09:23:40;98446.03;;;10.94;68.94
16821;BME280;8527;49.740;6.604;2024-03-02T09:28:45;98439.50;;;10.76;69.44
16821;BME280;8527;49.740;6.604;2024-03-02T09:33:44;98444.84;;;11.03;69.79
16821;BME280;8527;49.740;6.604;2024-03-02T09:38:45;98427.44;;;11.41;69.75
16821;BME280;8527;49.740;6.604;2024-03-02T09:43:47;98427.44;;;11.34;68.72
16821;BME280;8527;49.740;6.604;2024-03-02T09:48:46;98423.38;;;11.38;69.65
16821;BME280;8527;49.740;6.604;2024-03-02T09:53:47;98419.06;;;11.44;69.70
16821;BME280;8527;49.740;6.604;2024-03-02T09:58:49;98399.31;;;11.86;70.06
16821;BME280;8527;49.740;6.604;2024-03-02T10:03:48;98398.75;;;12.61;69.06
16821;BME280;8527;49.740;6.604;2024-03-02T10:08:51;98395.13;;;12.17;68.26
16821;BME280;8527;49.740;6.604;2024-03-02T10:13:50;98390.19;;;12.20;69.27
16821;BME280;8527;49.740;6.604;2024-03-02T10:18:51;98387.22;;;12.03;68.16
16821;BME280;8527;49.740;6.604;2024-03-02T10:23:52;98376.34;;;12.44;67.65
16821;BME280;8527;49.740;6.604;2024-03-02T10:28:52;98382.47;;;12.12;66.91
16821;BME280;8527;49.740;6.604;2024-03-02T10:33:57;98377.16;;;12.44;67.11
16821;BME280;8527;49.740;6.604;2024-03-02T10:39:01;98379.53;;;12.85;66.02
16821;BME280;8527;49.740;6.604;2024-03-02T10:44:02;98376.13;;;13.66;64.12
16821;BME280;8527;49.740;6.604;2024-03-02T10:49:02;98367.59;;;13.13;64.24
16821;BME280;8527;49.740;6.604;2024-03-02T10:54:06;98362.75;;;13.28;64.19
16821;BME280;8527;49.740;6.604;2024-03-02T10:59:11;98362.22;;;13.19;64.34
16821;BME280;8527;49.740;6.604;2024-03-02T11:04:16;98348.47;;;13.22;64.37
16821;BME280;8527;49.740;6.604;2024-03-02T11:09:26;98346.34;;;13.31;64.99
16821;BME280;8527;49.740;6.604;2024-03-02T11:14:31;98354.47;;;13.18;64.39
16821;BME280;8527;49.740;6.604;2024-03-02T11:19:34;98348.66;;;13.46;62.13
16821;BME280;8527;49.740;6.604;2024-03-02T11:24:36;98336.56;;;13.81;61.13
16821;BME280;8527;49.740;6.604;2024-03-02T11:29:44;98330.38;;;13.99;60.68
16821;BME280;8527;49.740;6.604;2024-03-02T11:34:46;98328.50;;;14.00;59.77
16821;BME280;8527;49.740;6.604;2024-03-02T11:39:49;98313.88;;;13.90;60.15
16821;BME280;8527;49.740;6.604;2024-03-02T11:44:48;98310.66;;;14.00;59.86
16821;BME280;8527;49.740;6.604;2024-03-02T11:49:50;98307.31;;;14.05;59.73
16821;BME280;8527;49.740;6.604;2024-03-02T11:54:51;98297.66;;;13.92;58.73
16821;BME280;8527;49.740;6.604;2024-03-02T11:59:55;98298.03;;;14.50;58.46
16821;BME280;8527;49.740;6.604;2024-03-02T12:05:03;98273.63;;;14.34;55.83
16821;BME280;8527;49.740;6.604;2024-03-02T12:10:05;98261.44;;;15.10;56.32
16821;BME280;8527;49.740;6.604;2024-03-02T12:15:07;98260.91;;;14.96;55.66
16821;BME280;8527;49.740;6.604;2024-03-02T12:20:06;98255.38;;;14.74;55.56
16821;BME280;8527;49.740;6.604;2024-03-02T12:25:08;98261.75;;;14.73;56.20
16821;BME280;8527;49.740;6.604;2024-03-02T12:30:07;98251.03;;;14.61;55.70
16821;BME280;8527;49.740;6.604;2024-03-02T12:35:07;98253.47;;;14.62;55.72
16821;BME280;8527;49.740;6.604;2024-03-02T12:40:11;98253.47;;;14.51;57.44
16821;BME280;8527;49.740;6.604;2024-03-02T12:45:10;98245.34;;;14.57;55.98
16821;BME280;8527;49.740;6.604;2024-03-02T12:50:09;98238.44;;;15.21;55.01
16821;BME280;8527;49.740;6.604;2024-03-02T12:55:10;98239.38;;;15.27;55.59
16821;BME280;8527;49.740;6.604;2024-03-02T13:00:13;98239.75;;;15.07;55.11
16821;BME280;8527;49.740;6.604;2024-03-02T13:05:14;98229.56;;;14.44;56.43
16821;BME280;8527;49.740;6.604;2024-03-02T13:10:15;98230.34;;;14.32;56.17
16821;BME280;8527;49.740;6.604;2024-03-02T13:15:15;98241.91;;;14.02;57.11
16821;BME280;8527;49.740;6.604;2024-03-02T13:20:23;98217.13;;;14.14;57.40
16821;BME280;8527;49.740;6.604;2024-03-02T13:25:30;98214.69;;;14.00;57.91
16821;BME280;8527;49.740;6.604;2024-03-02T13:30:29;98206.00;;;14.17;57.22
16821;BME280;8527;49.740;6.604;2024-03-02T13:35:31;98204.97;;;14.54;57.86
16821;BME280;8527;49.740;6.604;2024-03-02T13:40:32;98196.25;;;14.70;56.18
16821;BME280;8527;49.740;6.604;2024-03-02T13:45:32;98188.16;;;14.77;56.69
16821;BME280;8527;49.740;6.604;2024-03-02T13:50:30;98186.88;;;14.80;56.66
16821;BME280;8527;49.740;6.604;2024-03-02T13:55:29;98192.19;;;14.68;56.82
16821;BME280;8527;49.740;6.604;2024-03-02T14:00:30;98197.19;;;14.52;57.34
16821;BME280;8527;49.740;6.604;2024-03-02T14:05:33;98187.31;;;14.53;59.47
16821;BME280;8527;49.740;6.604;2024-03-02T14:10:32;98187.34;;;14.29;60.48
16821;BME280;8527;49.740;6.604;2024-03-02T14:15:33;98180.59;;;14.14;60.87
16821;BME280;8527;49.740;6.604;2024-03-02T14:20:34;98183.16;;;14.21;60.76
16821;BME280;8527;49.740;6.604;2024-03-02T14:25:35;98173.84;;;13.88;61.10
16821;BME280;8527;49.740;6.604;2024-03-02T14:30:39;98166.53;;;13.83;61.09
16821;BME280;8527;49.740;6.604;2024-03-02T14:35:41;98174.94;;;14.11;61.15
16821;BME280;8527;49.740;6.604;2024-03-02T14:40:39;98166.13;;;14.22;60.23
16821;BME280;8527;49.740;6.604;2024-03-02T14:45:45;98172.84;;;14.37;59.54
16821;BME280;8527;49.740;6.604;2024-03-02T14:50:47;98166.81;;;14.41;60.91
16821;BME280;8527;49.740;6.604;2024-03-02T14:55:46;98172.25;;;14.23;60.54
16821;BME280;8527;49.740;6.604;2024-03-02T15:00:47;98175.97;;;14.33;60.79
16821;BME280;8527;49.740;6.604;2024-03-02T15:05:46;98166.72;;;14.24;60.16
16821;BME280;8527;49.740;6.604;2024-03-02T15:10:47;98151.16;;;14.09;60.58
16821;BME280;8527;49.740;6.604;2024-03-02T15:15:51;98148.59;;;14.02;61.30
16821;BME280;8527;49.740;6.604;2024-03-02T15:20:53;98150.44;;;13.90;60.85
16821;BME280;8527;49.740;6.604;2024-03-02T15:25:54;98144.66;;;14.05;60.35
16821;BME280;8527;49.740;6.604;2024-03-02T15:30:58;98149.66;;;14.01;61.04
16821;BME280;8527;49.740;6.604;2024-03-02T15:35:58;98143.63;;;14.06;61.48
16821;BME280;8527;49.740;6.604;2024-03-02T15:40:56;98134.56;;;13.83;62.05
16821;BME280;8527;49.740;6.604;2024-03-02T15:46:00;98126.44;;;13.90;61.84
16821;BME280;8527;49.740;6.604;2024-03-02T15:51:05;98132.56;;;13.78;62.44
16821;BME280;8527;49.740;6.604;2024-03-02T15:56:04;98127.34;;;13.60;62.22
16821;BME280;8527;49.740;6.604;2024-03-02T16:01:05;98137.06;;;13.66;62.71
16821;BME280;8527;49.740;6.604;2024-03-02T16:06:04;98133.47;;;13.48;62.12
16821;BME280;8527;49.740;6.604;2024-03-02T16:11:03;98124.06;;;13.58;62.58
16821;BME280;8527;49.740;6.604;2024-03-02T16:16:02;98129.88;;;13.55;62.96
16821;BME280;8527;49.740;6.604;2024-03-02T16:21:08;98131.84;;;13.59;62.39
16821;BME280;8527;49.740;6.604;2024-03-02T16:26:07;98138.09;;;13.53;62.68
16821;BME280;8527;49.740;6.604;2024-03-02T16:31:05;98140.97;;;13.52;62.57
16821;BME280;8527;49.740;6.604;2024-03-02T16:36:09;98153.44;;;13.39;64.32
16821;BME280;8527;49.740;6.604;2024-03-02T16:41:08;98165.31;;;13.25;67.57
16821;BME280;8527;49.740;6.604;2024-03-02T16:46:09;98175.56;;;13.09;70.79
16821;BME280;8527;49.740;6.604;2024-03-02T16:51:10;98173.78;;;12.84;74.47
16821;BME280;8527;49.740;6.604;2024-03-02T16:56:09;98141.13;;;12.77;78.81
16821;BME280;8527;49.740;6.604;2024-03-02T17:01:19;98142.97;;;12.58;78.22
16821;BME280;8527;49.740;6.604;2024-03-02T17:06:21;98141.72;;;12.60;81.25
16821;BME280;8527;49.740;6.604;2024-03-02T17:11:22;98145.25;;;12.54;82.28
16821;BME280;8527;49.740;6.604;2024-03-02T17:16:20;98136.06;;;12.31;86.91
16821;BME280;8527;49.740;6.604;2024-03-02T17:21:24;98130.81;;;12.06;89.55
16821;BME280;8527;49.740;6.604;2024-03-02T17:26:28;98143.09;;;12.00;88.07
16821;BME280;8527;49.740;6.604;2024-03-02T17:31:30;98119.38;;;11.99;91.12
16821;BME280;8527;49.740;6.604;2024-03-02T17:36:31;98122.97;;;11.86;91.17
16821;BME280;8527;49.740;6.604;2024-03-02T17:41:29;98107.88;;;11.79;95.91
16821;BME280;8527;49.740;6.604;2024-03-02T17:46:28;98106.25;;;11.78;93.72
16821;BME280;8527;49.740;6.604;2024-03-02T17:51:27;98106.59;;;11.63;90.66
16821;BME280;8527;49.740;6.604;2024-03-02T17:56:28;98110.28;;;11.88;88.34
16821;BME280;8527;49.740;6.604;2024-03-02T18:01:26;98112.56;;;11.84;88.26
16821;BME280;8527;49.740;6.604;2024-03-02T18:06:28;98110.72;;;11.59;90.17
16821;BME280;8527;49.740;6.604;2024-03-02T18:11:32;98121.03;;;11.42;95.41
16821;BME280;8527;49.740;6.604;2024-03-02T18:16:30;98105.75;;;11.37;92.48
16821;BME280;8527;49.740;6.604;2024-03-02T18:21:29;98094.13;;;11.38;94.58
16821;BME280;8527;49.740;6.604;2024-03-02T18:26:28;98097.41;;;11.34;92.05
16821;BME280;8527;49.740;6.604;2024-03-02T18:31:31;98094.41;;;11.23;92.75
16821;BME280;8527;49.740;6.604;2024-03-02T18:36:29;98096.75;;;11.06;95.00
16821;BME280;8527;49.740;6.604;2024-03-02T18:41:28;98096.47;;;11.21;90.91
16821;BME280;8527;49.740;6.604;2024-03-02T18:46:26;98104.53;;;11.08;94.30
16821;BME280;8527;49.740;6.604;2024-03-02T18:51:27;98093.13;;;11.01;94.66
16821;BME280;8527;49.740;6.604;2024-03-02T18:56:26;98088.63;;;11.01;92.40
16821;BME280;8527;49.740;6.604;2024-03-02T19:01:24;98088.50;;;10.82;94.76
16821;BME280;8527;49.740;6.604;2024-03-02T19:06:28;98083.63;;;10.79;94.55
16821;BME280;8527;49.740;6.604;2024-03-02T19:11:28;98074.84;;;10.79;93.33
16821;BME280;8527;49.740;6.604;2024-03-02T19:16:26;98088.78;;;10.67;92.90
16821;BME280;8527;49.740;6.604;2024-03-02T19:21:27;98068.41;;;10.61;93.08
16821;BME280;8527;49.740;6.604;2024-03-02T19:26:35;98071.53;;;10.45;94.34
16821;BME280;8527;49.740;6.604;2024-03-02T19:31:33;98080.91;;;10.34;94.60
16821;BME280;8527;49.740;6.604;2024-03-02T19:36:35;98074.38;;;10.36;96.44
16821;BME280;8527;49.740;6.604;2024-03-02T19:41:33;98089.88;;;10.33;95.77
16821;BME280;8527;49.740;6.604;2024-03-02T19:46:42;98087.66;;;10.43;97.73
16821;BME280;8527;49.740;6.604;2024-03-02T19:51:46;98083.56;;;10.34;95.01
16821;BME280;8527;49.740;6.604;2024-03-02T19:56:44;98074.81;;;10.33;94.74
16821;BME280;8527;49.740;6.604;2024-03-02T20:01:43;98093.34;;;10.47;92.64
16821;BME280;8527;49.740;6.604;2024-03-02T20:06:47;98082.16;;;10.38;88.56
16821;BME280;8527;49.740;6.604;2024-03-02T20:11:45;98088.53;;;10.76;82.38
16821;BME280;8527;49.740;6.604;2024-03-02T20:16:44;98094.44;;;10.78;86.52
16821;BME280;8527;49.740;6.604;2024-03-02T20:21:43;98097.16;;;10.64;90.46
16821;BME280;8527;49.740;6.604;2024-03-02T20:26:44;98118.00;;;10.47;93.87
16821;BME280;8527;49.740;6.604;2024-03-02T20:31:48;98131.47;;;10.39;95.30
16821;BME280;8527;49.740;6.604;2024-03-02T20:36:50;98142.50;;;10.29;92.86
16821;BME280;8527;49.740;6.604;2024-03-02T20:41:54;98145.78;;;10.31;93.29
16821;BME280;8527;49.740;6.604;2024-03-02T20:46:53;98142.72;;;10.27;94.11
16821;BME280;8527;49.740;6.604;2024-03-02T20:51:51;98133.34;;;10.18;94.24
16821;BME280;8527;49.740;6.604;2024-03-02T20:56:55;98113.34;;;10.22;91.04
16821;BME280;8527;49.740;6.604;2024-03-02T21:01:55;98106.66;;;10.20;94.63
16821;BME280;8527;49.740;6.604;2024-03-02T21:06:59;98114.38;;;10.14;95.39
16821;BME280;8527;49.740;6.604;2024-03-02T21:12:03;98121.53;;;10.14;96.81
16821;BME280;8527;49.740;6.604;2024-03-02T21:17:04;98114.22;;;10.09;98.13
16821;BME280;8527;49.740;6.604;2024-03-02T21:22:05;98109.94;;;10.08;97.06
16821;BME280;8527;49.740;6.604;2024-03-02T21:27:10;98090.75;;;10.13;97.86
16821;BME280;8527;49.740;6.604;2024-03-02T21:32:08;98087.31;;;10.06;100.00
16821;BME280;8527;49.740;6.604;2024-03-02T21:37:07;98078.53;;;9.98;100.00
16821;BME280;8527;49.740;6.604;2024-03-02T21:42:08;98063.09;;;9.82;100.00
16821;BME280;8527;49.740;6.604;2024-03-02T21:47:07;98057.38;;;9.65;100.00
16821;BME280;8527;49.740;6.604;2024-03-02T21:52:06;98056.38;;;9.86;99.23
16821;BME280;8527;49.740;6.604;2024-03-02T21:57:04;98054.72;;;9.78;100.00
16821;BME280;8527;49.740;6.604;2024-03-02T22:02:09;98048.81;;;9.83;99.69
16821;BME280;8527;49.740;6.604;2024-03-02T22:07:10;98062.91;;;9.63;100.00
16821;BME280;8527;49.740;6.604;2024-03-02T22:12:09;98048.44;;;9.52;100.00
16821;BME280;8527;49.740;6.604;2024-03-02T22:17:11;98047.41;;;9.47;100.00
16821;BME280;8527;49.740;6.604;2024-03-02T22:22:10;98038.69;;;9.39;100.00
16821;BME280;8527;49.740;6.604;2024-03-02T22:27:08;98039.88;;;9.37;100.00
16821;BME280;8527;49.740;6.604;2024-03-02T22:32:07;98028.88;;;9.26;100.00
16821;BME280;8527;49.740;6.604;2024-03-02T22:37:08;98031.94;;;9.23;100.00
16821;BME280;8527;49.740;6.604;2024-03-02T22:42:06;98030.72;;;9.39;100.00
16821;BME280;8527;49.740;6.604;2024-03-02T22:47:05;98034.00;;;9.28;100.00
16821;BME280;8527;49.740;6.604;2024-03-02T22:52:09;98033.16;;;9.21;100.00
16821;BME280;8527;49.740;6.604;2024-03-02T22:57:08;98032.13;;;9.08;100.00
16821;BME280;8527;49.740;6.604;2024-03-02T23:02:12;98019.72;;;9.09;100.00
16821;BME280;8527;49.740;6.604;2024-03-02T23:07:17;98021.38;;;9.23;100.00
16821;BME280;8527;49.740;6.604;2024-03-02T23:12:18;98025.03;;;9.15;100.00
16821;BME280;8527;49.740;6.604;2024-03-02T23:17:16;98015.22;;;9.09;99.09
16821;BME280;8527;49.740;6.604;2024-03-02T23:22:21;98008.72;;;9.12;100.00
16821;BME280;8527;49.740;6.604;2024-03-02T23:27:20;98000.78;;;8.92;100.00
16821;BME280;8527;49.740;6.604;2024-03-02T23:32:25;98003.03;;;9.08;99.43
16821;BME280;8527;49.740;6.604;2024-03-02T23:37:29;98008.31;;;9.15;99.74
16821;BME280;8527;49.740;6.604;2024-03-02T23:42:28;97998.56;;;9.15;99.53
16821;BME280;8527;49.740;6.604;2024-03-02T23:47:26;97997.13;;;9.06;100.00
16821;BME280;8527;49.740;6.604;2024-03-02T23:52:27;97998.56;;;9.02;98.70
16821;BME280;8527;49.740;6.604;2024-03-02T23:57:29;97995.09;;;9.01;99.34
